sensor_id;sensor_type;location;lat;lon;timestamp;temperature;humidity
4097;DHT22;2062;50.694;7.246;2023-08-01T00:00:37;18.00;72.80
4097;DHT22;2062;50.694;7.246;2023-08-01T00:03:04;18.00;73.00
4097;DHT22;2062;50.694;7.246;2023-08-01T00:05:31;17.90;73.00
4097;DHT22;2062;50.694;7.246;2023-08-01T00:07:59;18.00;73.70
4097;DHT22;2062;50.694;7.246;2023-08-01T00:10:28;17.90;73.00
4097;DHT22;2062;50.694;7.246;2023-08-01T00:12:54;18.00;73.20
4097;DHT22;2062;50.694;7.246;2023-08-01T00:15:21;17.90;73.20
4097;DHT22;2062;50.694;7.246;2023-08-01T00:17:48;17.90;73.30
4097;DHT22;2062;50.694;7.246;2023-08-01T00:20:15;18.00;73.30
4097;DHT22;2062;50.694;7.246;2023-08-01T00:22:41;17.90;73.70
4097;DHT22;2062;50.694;7.246;2023-08-01T00:25:10;18.00;73.60
4097;DHT22;2062;50.694;7.246;2023-08-01T00:27:36;18.00;73.70
4097;DHT22;2062;50.694;7.246;2023-08-01T00:30:04;17.90;73.50
4097;DHT22;2062;50.694;7.246;2023-08-01T00:32:31;17.90;73.40
4097;DHT22;2062;50.694;7.246;2023-08-01T00:34:58;17.90;73.70
4097;DHT22;2062;50.694;7.246;2023-08-01T00:37:25;18.00;73.90
4097;DHT22;2062;50.694;7.246;2023-08-01T00:39:52;18.00;73.50
4097;DHT22;2062;50.694;7.246;2023-08-01T00:42:20;18.00;73.60
4097;DHT22;2062;50.694;7.246;2023-08-01T00:44:46;17.90;74.00
4097;DHT22;2062;50.694;7.246;2023-08-01T00:47:14;18.10;74.10
4097;DHT22;2062;50.694;7.246;2023-08-01T00:49:42;17.90;74.10
4097;DHT22;2062;50.694;7.246;2023-08-01T00:52:09;17.90;73.90
4097;DHT22;2062;50.694;7.246;2023-08-01T00:54:36;17.90;74.20
4097;DHT22;2062;50.694;7.246;2023-08-01T00:57:03;17.90;74.10
4097;DHT22;2062;50.694;7.246;2023-08-01T00:59:32;17.90;74.00
4097;DHT22;2062;50.694;7.246;2023-08-01T01:02:00;17.90;74.10
4097;DHT22;2062;50.694;7.246;2023-08-01T01:04:27;17.90;74.00
4097;DHT22;2062;50.694;7.246;2023-08-01T01:07:00;17.90;74.10
4097;DHT22;2062;50.694;7.246;2023-08-01T01:09:29;17.90;74.30
4097;DHT22;2062;50.694;7.246;2023-08-01T01:11:57;17.90;74.20
4097;DHT22;2062;50.694;7.246;2023-08-01T01:14:24;18.00;74.20
4097;DHT22;2062;50.694;7.246;2023-08-01T01:16:52;17.90;74.10
4097;DHT22;2062;50.694;7.246;2023-08-01T01:19:19;17.90;74.30
4097;DHT22;2062;50.694;7.246;2023-08-01T01:21:48;17.90;74.10
4097;DHT22;2062;50.694;7.246;2023-08-01T01:24:15;17.90;74.40
4097;DHT22;2062;50.694;7.246;2023-08-01T01:26:43;17.90;74.40
4097;DHT22;2062;50.694;7.246;2023-08-01T01:29:11;18.00;74.40
4097;DHT22;2062;50.694;7.246;2023-08-01T01:31:38;18.00;74.60
4097;DHT22;2062;50.694;7.246;2023-08-01T01:34:05;17.90;74.60
4097;DHT22;2062;50.694;7.246;2023-08-01T01:36:32;18.00;74.70
4097;DHT22;2062;50.694;7.246;2023-08-01T01:39:01;17.90;74.50
4097;DHT22;2062;50.694;7.246;2023-08-01T01:41:27;17.90;74.70
4097;DHT22;2062;50.694;7.246;2023-08-01T01:43:54;18.00;74.50
4097;DHT22;2062;50.694;7.246;2023-08-01T01:46:21;18.00;74.70
4097;DHT22;2062;50.694;7.246;2023-08-01T01:48:48;18.00;74.70
4097;DHT22;2062;50.694;7.246;2023-08-01T01:51:15;18.00;74.50
4097;DHT22;2062;50.694;7.246;2023-08-01T01:53:41;17.90;74.40
4097;DHT22;2062;50.694;7.246;2023-08-01T01:56:09;18.00;74.50
4097;DHT22;2062;50.694;7.246;2023-08-01T01:58:36;18.00;74.90
4097;DHT22;2062;50.694;7.246;2023-08-01T02:01:03;18.00;75.00
4097;DHT22;2062;50.694;7.246;2023-08-01T02:03:30;18.00;74.90
4097;DHT22;2062;50.694;7.246;2023-08-01T02:05:56;18.00;74.90
4097;DHT22;2062;50.694;7.246;2023-08-01T02:08:23;18.00;74.90
4097;DHT22;2062;50.694;7.246;2023-08-01T02:10:50;18.00;75.00
4097;DHT22;2062;50.694;7.246;2023-08-01T02:13:18;18.00;75.10
4097;DHT22;2062;50.694;7.246;2023-08-01T02:15:45;18.00;75.20
4097;DHT22;2062;50.694;7.246;2023-08-01T02:18:12;18.00;75.30
4097;DHT22;2062;50.694;7.246;2023-08-01T02:20:38;18.00;75.50
4097;DHT22;2062;50.694;7.246;2023-08-01T02:23:05;18.00;75.60
4097;DHT22;2062;50.694;7.246;2023-08-01T02:25:32;18.00;75.50
4097;DHT22;2062;50.694;7.246;2023-08-01T02:27:59;18.00;75.90
4097;DHT22;2062;50.694;7.246;2023-08-01T02:30:27;18.00;75.50
4097;DHT22;2062;50.694;7.246;2023-08-01T02:32:54;18.00;75.50
4097;DHT22;2062;50.694;7.246;2023-08-01T02:35:21;18.00;75.80
4097;DHT22;2062;50.694;7.246;2023-08-01T02:37:48;18.00;75.80
4097;DHT22;2062;50.694;7.246;2023-08-01T02:40:15;18.00;75.70
4097;DHT22;2062;50.694;7.246;2023-08-01T02:42:41;18.00;75.80
4097;DHT22;2062;50.694;7.246;2023-08-01T02:45:09;18.00;75.70
4097;DHT22;2062;50.694;7.246;2023-08-01T02:47:37;18.00;75.90
4097;DHT22;2062;50.694;7.246;2023-08-01T02:50:04;18.00;76.10
4097;DHT22;2062;50.694;7.246;2023-08-01T02:52:32;18.00;76.40
4097;DHT22;2062;50.694;7.246;2023-08-01T02:54:58;18.10;76.60
4097;DHT22;2062;50.694;7.246;2023-08-01T02:57:25;18.00;76.70
4097;DHT22;2062;50.694;7.246;2023-08-01T02:59:52;18.00;76.80
4097;DHT22;2062;50.694;7.246;2023-08-01T03:02:19;18.00;76.40
4097;DHT22;2062;50.694;7.246;2023-08-01T03:04:47;18.00;76.70
4097;DHT22;2062;50.694;7.246;2023-08-01T03:07:14;18.00;76.60
4097;DHT22;2062;50.694;7.246;2023-08-01T03:09:40;18.00;76.20
4097;DHT22;2062;50.694;7.246;2023-08-01T03:12:08;17.90;76.40
4097;DHT22;2062;50.694;7.246;2023-08-01T03:14:35;17.90;76.10
4097;DHT22;2062;50.694;7.246;2023-08-01T03:17:02;17.90;76.10
4097;DHT22;2062;50.694;7.246;2023-08-01T03:19:29;17.90;76.20
4097;DHT22;2062;50.694;7.246;2023-08-01T03:21:57;17.80;76.00
4097;DHT22;2062;50.694;7.246;2023-08-01T03:24:24;17.80;75.70
4097;DHT22;2062;50.694;7.246;2023-08-01T03:26:50;17.70;75.60
4097;DHT22;2062;50.694;7.246;2023-08-01T03:29:17;17.70;75.60
4097;DHT22;2062;50.694;7.246;2023-08-01T03:31:44;17.70;75.40
4097;DHT22;2062;50.694;7.246;2023-08-01T03:34:11;17.70;76.00
4097;DHT22;2062;50.694;7.246;2023-08-01T03:36:38;17.70;75.60
4097;DHT22;2062;50.694;7.246;2023-08-01T03:39:06;17.60;75.40
4097;DHT22;2062;50.694;7.246;2023-08-01T03:41:35;17.50;75.20
4097;DHT22;2062;50.694;7.246;2023-08-01T03:44:02;17.50;75.10
4097;DHT22;2062;50.694;7.246;2023-08-01T03:46:29;17.50;75.20
4097;DHT22;2062;50.694;7.246;2023-08-01T03:48:56;17.50;75.10
4097;DHT22;2062;50.694;7.246;2023-08-01T03:51:23;17.40;75.00
4097;DHT22;2062;50.694;7.246;2023-08-01T03:53:49;17.40;74.90
4097;DHT22;2062;50.694;7.246;2023-08-01T03:56:18;17.40;74.90
4097;DHT22;2062;50.694;7.246;2023-08-01T03:58:44;17.30;74.80
4097;DHT22;2062;50.694;7.246;2023-08-01T04:01:11;17.30;74.70
4097;DHT22;2062;50.694;7.246;2023-08-01T04:03:38;17.30;74.70
4097;DHT22;2062;50.694;7.246;2023-08-01T04:06:05;17.20;74.50
4097;DHT22;2062;50.694;7.246;2023-08-01T04:08:32;17.20;74.50
4097;DHT22;2062;50.694;7.246;2023-08-01T04:10:59;17.20;74.50
4097;DHT22;2062;50.694;7.246;2023-08-01T04:13:27;17.20;74.40
4097;DHT22;2062;50.694;7.246;2023-08-01T04:15:54;17.10;74.30
4097;DHT22;2062;50.694;7.246;2023-08-01T04:18:20;17.10;74.40
4097;DHT22;2062;50.694;7.246;2023-08-01T04:20:47;17.10;74.30
4097;DHT22;2062;50.694;7.246;2023-08-01T04:23:14;17.10;74.50
4097;DHT22;2062;50.694;7.246;2023-08-01T04:25:41;17.10;74.40
4097;DHT22;2062;50.694;7.246;2023-08-01T04:28:08;17.10;74.40
4097;DHT22;2062;50.694;7.246;2023-08-01T04:30:36;17.00;74.30
4097;DHT22;2062;50.694;7.246;2023-08-01T04:33:04;17.00;74.30
4097;DHT22;2062;50.694;7.246;2023-08-01T04:35:30;17.00;74.30
4097;DHT22;2062;50.694;7.246;2023-08-01T04:37:57;17.00;74.40
4097;DHT22;2062;50.694;7.246;2023-08-01T04:40:24;16.90;74.20
4097;DHT22;2062;50.694;7.246;2023-08-01T04:42:51;17.00;74.30
4097;DHT22;2062;50.694;7.246;2023-08-01T04:45:18;17.00;74.40
4097;DHT22;2062;50.694;7.246;2023-08-01T04:47:46;16.90;74.40
4097;DHT22;2062;50.694;7.246;2023-08-01T04:50:13;16.90;74.50
4097;DHT22;2062;50.694;7.246;2023-08-01T04:52:39;16.90;74.50
4097;DHT22;2062;50.694;7.246;2023-08-01T04:55:07;16.90;74.40
4097;DHT22;2062;50.694;7.246;2023-08-01T04:57:34;16.90;74.50
4097;DHT22;2062;50.694;7.246;2023-08-01T05:00:01;16.90;74.60
4097;DHT22;2062;50.694;7.246;2023-08-01T05:02:27;16.90;74.50
4097;DHT22;2062;50.694;7.246;2023-08-01T05:04:55;16.80;74.50
4097;DHT22;2062;50.694;7.246;2023-08-01T05:07:22;16.80;74.70
4097;DHT22;2062;50.694;7.246;2023-08-01T05:09:49;16.80;74.60
4097;DHT22;2062;50.694;7.246;2023-08-01T05:12:16;16.80;74.50
4097;DHT22;2062;50.694;7.246;2023-08-01T05:14:42;16.80;74.80
4097;DHT22;2062;50.694;7.246;2023-08-01T05:17:09;16.80;75.40
4097;DHT22;2062;50.694;7.246;2023-08-01T05:19:36;16.80;74.40
4097;DHT22;2062;50.694;7.246;2023-08-01T05:22:05;16.70;74.10
4097;DHT22;2062;50.694;7.246;2023-08-01T05:24:31;16.70;73.70
4097;DHT22;2062;50.694;7.246;2023-08-01T05:26:58;16.70;73.60
4097;DHT22;2062;50.694;7.246;2023-08-01T05:29:25;16.60;73.60
4097;DHT22;2062;50.694;7.246;2023-08-01T05:31:52;16.60;73.50
4097;DHT22;2062;50.694;7.246;2023-08-01T05:34:18;16.60;73.50
4097;DHT22;2062;50.694;7.246;2023-08-01T05:36:45;16.60;73.50
4097;DHT22;2062;50.694;7.246;2023-08-01T05:39:13;16.50;73.60
4097;DHT22;2062;50.694;7.246;2023-08-01T05:41:40;16.50;73.60
4097;DHT22;2062;50.694;7.246;2023-08-01T05:44:07;16.50;73.60
4097;DHT22;2062;50.694;7.246;2023-08-01T05:46:34;16.50;73.70
4097;DHT22;2062;50.694;7.246;2023-08-01T05:49:01;16.50;73.80
4097;DHT22;2062;50.694;7.246;2023-08-01T05:51:27;16.50;73.90
4097;DHT22;2062;50.694;7.246;2023-08-01T05:53:54;16.40;73.80
4097;DHT22;2062;50.694;7.246;2023-08-01T05:56:22;16.50;73.90
4097;DHT22;2062;50.694;7.246;2023-08-01T05:58:49;16.50;74.00
4097;DHT22;2062;50.694;7.246;2023-08-01T06:01:16;16.50;74.00
4097;DHT22;2062;50.694;7.246;2023-08-01T06:03:43;16.50;74.10
4097;DHT22;2062;50.694;7.246;2023-08-01T06:06:10;16.50;74.10
4097;DHT22;2062;50.694;7.246;2023-08-01T06:08:37;16.50;74.20
4097;DHT22;2062;50.694;7.246;2023-08-01T06:11:03;16.50;74.20
4097;DHT22;2062;50.694;7.246;2023-08-01T06:13:32;16.60;74.20
4097;DHT22;2062;50.694;7.246;2023-08-01T06:15:58;16.60;74.40
4097;DHT22;2062;50.694;7.246;2023-08-01T06:18:25;16.60;74.50
4097;DHT22;2062;50.694;7.246;2023-08-01T06:20:52;16.60;74.60
4097;DHT22;2062;50.694;7.246;2023-08-01T06:23:19;16.70;74.90
4097;DHT22;2062;50.694;7.246;2023-08-01T06:25:45;16.70;75.10
4097;DHT22;2062;50.694;7.246;2023-08-01T06:28:12;16.80;75.10
4097;DHT22;2062;50.694;7.246;2023-08-01T06:30:40;16.80;75.30
4097;DHT22;2062;50.694;7.246;2023-08-01T06:33:07;16.90;75.40
4097;DHT22;2062;50.694;7.246;2023-08-01T06:35:34;17.00;75.40
4097;DHT22;2062;50.694;7.246;2023-08-01T06:38:01;17.10;75.50
4097;DHT22;2062;50.694;7.246;2023-08-01T06:40:27;17.20;76.10
4097;DHT22;2062;50.694;7.246;2023-08-01T06:42:54;17.30;76.50
4097;DHT22;2062;50.694;7.246;2023-08-01T06:45:21;17.40;76.60
4097;DHT22;2062;50.694;7.246;2023-08-01T06:47:49;17.60;76.60
4097;DHT22;2062;50.694;7.246;2023-08-01T06:50:16;17.70;76.50
4097;DHT22;2062;50.694;7.246;2023-08-01T06:52:43;17.80;76.10
4097;DHT22;2062;50.694;7.246;2023-08-01T06:55:09;18.00;75.80
4097;DHT22;2062;50.694;7.246;2023-08-01T06:57:36;18.00;75.30
4097;DHT22;2062;50.694;7.246;2023-08-01T07:00:03;18.10;75.20
4097;DHT22;2062;50.694;7.246;2023-08-01T07:02:30;18.10;75.00
4097;DHT22;2062;50.694;7.246;2023-08-01T07:04:59;18.20;74.70
4097;DHT22;2062;50.694;7.246;2023-08-01T07:07:26;18.20;74.50
4097;DHT22;2062;50.694;7.246;2023-08-01T07:09:52;18.20;74.40
4097;DHT22;2062;50.694;7.246;2023-08-01T07:12:19;18.30;74.30
4097;DHT22;2062;50.694;7.246;2023-08-01T07:14:46;18.30;74.30
4097;DHT22;2062;50.694;7.246;2023-08-01T07:17:13;18.40;74.40
4097;DHT22;2062;50.694;7.246;2023-08-01T07:19:39;18.50;74.70
4097;DHT22;2062;50.694;7.246;2023-08-01T07:22:08;18.60;74.60
4097;DHT22;2062;50.694;7.246;2023-08-01T07:24:34;18.70;74.40
4097;DHT22;2062;50.694;7.246;2023-08-01T07:27:01;18.90;74.30
4097;DHT22;2062;50.694;7.246;2023-08-01T07:29:28;19.00;74.00
4097;DHT22;2062;50.694;7.246;2023-08-01T07:31:55;19.20;73.60
4097;DHT22;2062;50.694;7.246;2023-08-01T07:34:22;19.30;72.90
4097;DHT22;2062;50.694;7.246;2023-08-01T07:36:49;19.40;72.60
4097;DHT22;2062;50.694;7.246;2023-08-01T07:39:17;19.50;71.70
4097;DHT22;2062;50.694;7.246;2023-08-01T07:41:44;19.70;71.10
4097;DHT22;2062;50.694;7.246;2023-08-01T07:44:11;19.60;70.40
4097;DHT22;2062;50.694;7.246;2023-08-01T07:46:37;19.60;70.30
4097;DHT22;2062;50.694;7.246;2023-08-01T07:49:04;19.60;69.80
4097;DHT22;2062;50.694;7.246;2023-08-01T07:51:31;19.60;68.90
4097;DHT22;2062;50.694;7.246;2023-08-01T07:53:59;19.50;68.70
4097;DHT22;2062;50.694;7.246;2023-08-01T07:56:27;19.40;68.40
4097;DHT22;2062;50.694;7.246;2023-08-01T07:58:54;19.40;68.50
4097;DHT22;2062;50.694;7.246;2023-08-01T08:01:21;19.40;68.30
4097;DHT22;2062;50.694;7.246;2023-08-01T08:03:48;19.30;68.40
4097;DHT22;2062;50.694;7.246;2023-08-01T08:06:14;19.30;68.90
4097;DHT22;2062;50.694;7.246;2023-08-01T08:08:41;19.30;69.10
4097;DHT22;2062;50.694;7.246;2023-08-01T08:11:08;19.40;69.50
4097;DHT22;2062;50.694;7.246;2023-08-01T08:13:36;19.50;69.70
4097;DHT22;2062;50.694;7.246;2023-08-01T08:16:03;19.60;69.80
4097;DHT22;2062;50.694;7.246;2023-08-01T08:18:31;19.70;70.20
4097;DHT22;2062;50.694;7.246;2023-08-01T08:20:57;19.90;69.60
4097;DHT22;2062;50.694;7.246;2023-08-01T08:23:24;20.10;69.20
4097;DHT22;2062;50.694;7.246;2023-08-01T08:25:51;20.20;69.00
4097;DHT22;2062;50.694;7.246;2023-08-01T08:28:27;20.40;67.50
4097;DHT22;2062;50.694;7.246;2023-08-01T08:30:56;20.60;67.80
4097;DHT22;2062;50.694;7.246;2023-08-01T08:33:23;20.70;66.90
4097;DHT22;2062;50.694;7.246;2023-08-01T08:35:50;20.90;66.10
4097;DHT22;2062;50.694;7.246;2023-08-01T08:38:17;21.00;66.10
4097;DHT22;2062;50.694;7.246;2023-08-01T08:40:52;21.10;65.60
4097;DHT22;2062;50.694;7.246;2023-08-01T08:43:19;21.30;65.30
4097;DHT22;2062;50.694;7.246;2023-08-01T08:45:48;21.30;63.80
4097;DHT22;2062;50.694;7.246;2023-08-01T08:48:18;21.40;64.10
4097;DHT22;2062;50.694;7.246;2023-08-01T08:50:45;21.40;63.20
4097;DHT22;2062;50.694;7.246;2023-08-01T08:53:13;21.50;62.00
4097;DHT22;2062;50.694;7.246;2023-08-01T08:55:41;21.50;61.00
4097;DHT22;2062;50.694;7.246;2023-08-01T08:58:08;21.40;60.30
4097;DHT22;2062;50.694;7.246;2023-08-01T09:00:35;21.30;59.50
4097;DHT22;2062;50.694;7.246;2023-08-01T09:03:03;21.30;59.50
4097;DHT22;2062;50.694;7.246;2023-08-01T09:05:36;21.30;60.00
4097;DHT22;2062;50.694;7.246;2023-08-01T09:08:08;21.30;60.30
4097;DHT22;2062;50.694;7.246;2023-08-01T09:10:38;21.40;58.80
4097;DHT22;2062;50.694;7.246;2023-08-01T09:13:07;21.40;59.60
4097;DHT22;2062;50.694;7.246;2023-08-01T09:15:34;21.40;59.80
4097;DHT22;2062;50.694;7.246;2023-08-01T09:18:06;21.50;59.00
4097;DHT22;2062;50.694;7.246;2023-08-01T09:20:41;21.50;58.80
4097;DHT22;2062;50.694;7.246;2023-08-01T09:23:09;21.50;58.00
4097;DHT22;2062;50.694;7.246;2023-08-01T09:25:36;21.40;58.00
4097;DHT22;2062;50.694;7.246;2023-08-01T09:28:14;21.40;58.10
4097;DHT22;2062;50.694;7.246;2023-08-01T09:30:46;21.30;58.00
4097;DHT22;2062;50.694;7.246;2023-08-01T09:33:13;21.30;58.30
4097;DHT22;2062;50.694;7.246;2023-08-01T09:35:41;21.30;58.30
4097;DHT22;2062;50.694;7.246;2023-08-01T09:38:10;21.30;58.90
4097;DHT22;2062;50.694;7.246;2023-08-01T09:40:37;21.40;59.30
4097;DHT22;2062;50.694;7.246;2023-08-01T09:43:04;21.50;59.40
4097;DHT22;2062;50.694;7.246;2023-08-01T09:45:31;21.50;59.10
4097;DHT22;2062;50.694;7.246;2023-08-01T09:47:59;21.60;59.20
4097;DHT22;2062;50.694;7.246;2023-08-01T09:50:26;21.70;58.00
4097;DHT22;2062;50.694;7.246;2023-08-01T09:52:55;21.70;58.20
4097;DHT22;2062;50.694;7.246;2023-08-01T09:55:26;21.70;56.10
4097;DHT22;2062;50.694;7.246;2023-08-01T09:57:54;21.80;57.30
4097;DHT22;2062;50.694;7.246;2023-08-01T10:00:21;21.80;56.90
4097;DHT22;2062;50.694;7.246;2023-08-01T10:02:50;21.80;57.20
4097;DHT22;2062;50.694;7.246;2023-08-01T10:05:19;21.90;57.80
4097;DHT22;2062;50.694;7.246;2023-08-01T10:07:47;21.90;56.90
4097;DHT22;2062;50.694;7.246;2023-08-01T10:10:17;21.90;57.20
4097;DHT22;2062;50.694;7.246;2023-08-01T10:12:45;21.90;55.90
4097;DHT22;2062;50.694;7.246;2023-08-01T10:15:14;21.90;55.00
4097;DHT22;2062;50.694;7.246;2023-08-01T10:17:41;21.90;55.20
4097;DHT22;2062;50.694;7.246;2023-08-01T10:20:09;21.80;55.20
4097;DHT22;2062;50.694;7.246;2023-08-01T10:22:37;21.80;55.20
4097;DHT22;2062;50.694;7.246;2023-08-01T10:25:05;21.80;55.50
4097;DHT22;2062;50.694;7.246;2023-08-01T10:27:35;21.70;55.60
4097;DHT22;2062;50.694;7.246;2023-08-01T10:30:03;21.70;56.10
4097;DHT22;2062;50.694;7.246;2023-08-01T10:32:33;21.70;56.10
4097;DHT22;2062;50.694;7.246;2023-08-01T10:35:00;21.60;56.00
4097;DHT22;2062;50.694;7.246;2023-08-01T10:37:26;21.60;56.50
4097;DHT22;2062;50.694;7.246;2023-08-01T10:39:57;21.60;57.50
4097;DHT22;2062;50.694;7.246;2023-08-01T10:42:24;21.70;57.70
4097;DHT22;2062;50.694;7.246;2023-08-01T10:44:52;21.70;57.50
4097;DHT22;2062;50.694;7.246;2023-08-01T10:47:25;21.80;58.00
4097;DHT22;2062;50.694;7.246;2023-08-01T10:49:53;21.90;57.60
4097;DHT22;2062;50.694;7.246;2023-08-01T10:52:21;22.00;57.70
4097;DHT22;2062;50.694;7.246;2023-08-01T10:54:56;22.10;57.70
4097;DHT22;2062;50.694;7.246;2023-08-01T10:57:23;22.30;57.10
4097;DHT22;2062;50.694;7.246;2023-08-01T10:59:52;22.30;57.20
4097;DHT22;2062;50.694;7.246;2023-08-01T11:02:23;22.40;57.50
4097;DHT22;2062;50.694;7.246;2023-08-01T11:04:57;22.60;57.20
4097;DHT22;2062;50.694;7.246;2023-08-01T11:07:24;22.60;57.30
4097;DHT22;2062;50.694;7.246;2023-08-01T11:10:06;22.70;57.10
4097;DHT22;2062;50.694;7.246;2023-08-01T11:12:34;22.70;55.40
4097;DHT22;2062;50.694;7.246;2023-08-01T11:15:04;22.80;56.40
4097;DHT22;2062;50.694;7.246;2023-08-01T11:17:33;22.90;56.30
4097;DHT22;2062;50.694;7.246;2023-08-01T11:20:02;22.90;56.40
4097;DHT22;2062;50.694;7.246;2023-08-01T11:22:30;23.00;55.40
4097;DHT22;2062;50.694;7.246;2023-08-01T11:24:57;23.00;55.20
4097;DHT22;2062;50.694;7.246;2023-08-01T11:27:24;23.10;54.60
4097;DHT22;2062;50.694;7.246;2023-08-01T11:29:51;23.10;52.00
4097;DHT22;2062;50.694;7.246;2023-08-01T11:32:19;23.20;55.50
4097;DHT22;2062;50.694;7.246;2023-08-01T11:34:46;23.20;54.80
4097;DHT22;2062;50.694;7.246;2023-08-01T11:37:14;23.20;52.60
4097;DHT22;2062;50.694;7.246;2023-08-01T11:39:42;23.20;53.80
4097;DHT22;2062;50.694;7.246;2023-08-01T11:42:14;23.30;53.80
4097;DHT22;2062;50.694;7.246;2023-08-01T11:44:41;23.30;54.00
4097;DHT22;2062;50.694;7.246;2023-08-01T11:47:11;23.40;54.50
4097;DHT22;2062;50.694;7.246;2023-08-01T11:49:48;23.40;54.10
4097;DHT22;2062;50.694;7.246;2023-08-01T11:52:24;23.50;54.30
4097;DHT22;2062;50.694;7.246;2023-08-01T11:54:51;23.50;53.30
4097;DHT22;2062;50.694;7.246;2023-08-01T11:57:20;23.50;52.70
4097;DHT22;2062;50.694;7.246;2023-08-01T11:59:47;23.50;52.20
4097;DHT22;2062;50.694;7.246;2023-08-01T12:02:21;23.50;51.70
4097;DHT22;2062;50.694;7.246;2023-08-01T12:04:50;23.30;50.10
4097;DHT22;2062;50.694;7.246;2023-08-01T12:07:18;23.30;50.10
4097;DHT22;2062;50.694;7.246;2023-08-01T12:09:55;23.20;51.30
4097;DHT22;2062;50.694;7.246;2023-08-01T12:12:22;23.10;51.30
4097;DHT22;2062;50.694;7.246;2023-08-01T12:14:48;23.00;51.10
4097;DHT22;2062;50.694;7.246;2023-08-01T12:17:15;22.90;51.20
4097;DHT22;2062;50.694;7.246;2023-08-01T12:19:42;22.80;50.40
4097;DHT22;2062;50.694;7.246;2023-08-01T12:22:10;22.70;51.40
4097;DHT22;2062;50.694;7.246;2023-08-01T12:24:37;22.70;52.10
4097;DHT22;2062;50.694;7.246;2023-08-01T12:27:05;22.60;52.50
4097;DHT22;2062;50.694;7.246;2023-08-01T12:29:32;22.60;52.70
4097;DHT22;2062;50.694;7.246;2023-08-01T12:31:59;22.60;52.90
4097;DHT22;2062;50.694;7.246;2023-08-01T12:34:25;22.70;53.10
4097;DHT22;2062;50.694;7.246;2023-08-01T12:36:53;22.70;53.20
4097;DHT22;2062;50.694;7.246;2023-08-01T12:39:21;22.70;53.30
4097;DHT22;2062;50.694;7.246;2023-08-01T12:41:48;22.80;52.80
4097;DHT22;2062;50.694;7.246;2023-08-01T12:44:15;22.80;52.50
4097;DHT22;2062;50.694;7.246;2023-08-01T12:46:43;22.80;52.70
4097;DHT22;2062;50.694;7.246;2023-08-01T12:49:09;22.80;52.40
4097;DHT22;2062;50.694;7.246;2023-08-01T12:51:36;22.80;52.80
4097;DHT22;2062;50.694;7.246;2023-08-01T12:54:03;22.70;52.30
4097;DHT22;2062;50.694;7.246;2023-08-01T12:56:31;22.80;52.50
4097;DHT22;2062;50.694;7.246;2023-08-01T12:58:58;22.70;52.70
4097;DHT22;2062;50.694;7.246;2023-08-01T13:01:25;22.70;52.70
4097;DHT22;2062;50.694;7.246;2023-08-01T13:03:52;22.60;52.80
4097;DHT22;2062;50.694;7.246;2023-08-01T13:06:19;22.60;52.80
4097;DHT22;2062;50.694;7.246;2023-08-01T13:08:46;22.60;52.80
4097;DHT22;2062;50.694;7.246;2023-08-01T13:11:13;22.50;53.10
4097;DHT22;2062;50.694;7.246;2023-08-01T13:13:42;22.50;53.10
4097;DHT22;2062;50.694;7.246;2023-08-01T13:16:09;22.50;53.30
4097;DHT22;2062;50.694;7.246;2023-08-01T13:18:36;22.50;53.20
4097;DHT22;2062;50.694;7.246;2023-08-01T13:21:09;22.40;52.50
4097;DHT22;2062;50.694;7.246;2023-08-01T13:23:35;22.40;51.70
4097;DHT22;2062;50.694;7.246;2023-08-01T13:26:02;22.40;51.10
4097;DHT22;2062;50.694;7.246;2023-08-01T13:28:29;22.30;50.90
4097;DHT22;2062;50.694;7.246;2023-08-01T13:30:57;22.30;49.70
4097;DHT22;2062;50.694;7.246;2023-08-01T13:33:24;22.20;49.60
4097;DHT22;2062;50.694;7.246;2023-08-01T13:35:51;22.20;51.20
4097;DHT22;2062;50.694;7.246;2023-08-01T13:38:19;22.20;50.60
4097;DHT22;2062;50.694;7.246;2023-08-01T13:40:45;22.30;50.30
4097;DHT22;2062;50.694;7.246;2023-08-01T13:43:12;22.20;51.30
4097;DHT22;2062;50.694;7.246;2023-08-01T13:45:39;22.30;52.00
4097;DHT22;2062;50.694;7.246;2023-08-01T13:48:07;22.40;52.50
4097;DHT22;2062;50.694;7.246;2023-08-01T13:50:34;22.50;52.60
4097;DHT22;2062;50.694;7.246;2023-08-01T13:53:01;22.60;53.00
4097;DHT22;2062;50.694;7.246;2023-08-01T13:55:27;22.70;53.00
4097;DHT22;2062;50.694;7.246;2023-08-01T13:57:54;22.90;53.20
4097;DHT22;2062;50.694;7.246;2023-08-01T14:00:21;23.00;52.70
4097;DHT22;2062;50.694;7.246;2023-08-01T14:02:49;23.00;52.60
4097;DHT22;2062;50.694;7.246;2023-08-01T14:05:18;23.10;52.20
4097;DHT22;2062;50.694;7.246;2023-08-01T14:07:44;23.20;51.70
4097;DHT22;2062;50.694;7.246;2023-08-01T14:10:12;23.20;51.40
4097;DHT22;2062;50.694;7.246;2023-08-01T14:12:40;23.20;49.90
4097;DHT22;2062;50.694;7.246;2023-08-01T14:15:07;23.30;50.20
4097;DHT22;2062;50.694;7.246;2023-08-01T14:17:34;23.30;50.00
4097;DHT22;2062;50.694;7.246;2023-08-01T14:20:01;23.20;50.40
4097;DHT22;2062;50.694;7.246;2023-08-01T14:22:32;23.20;50.20
4097;DHT22;2062;50.694;7.246;2023-08-01T14:24:59;23.30;50.80
4097;DHT22;2062;50.694;7.246;2023-08-01T14:27:26;23.30;50.80
4097;DHT22;2062;50.694;7.246;2023-08-01T14:29:52;23.30;50.10
4097;DHT22;2062;50.694;7.246;2023-08-01T14:32:20;23.30;49.70
4097;DHT22;2062;50.694;7.246;2023-08-01T14:34:46;23.30;49.50
4097;DHT22;2062;50.694;7.246;2023-08-01T14:37:13;23.20;48.00
4097;DHT22;2062;50.694;7.246;2023-08-01T14:39:41;23.10;47.90
4097;DHT22;2062;50.694;7.246;2023-08-01T14:42:08;23.00;47.60
4097;DHT22;2062;50.694;7.246;2023-08-01T14:44:35;22.90;47.40
4097;DHT22;2062;50.694;7.246;2023-08-01T14:47:02;22.80;48.00
4097;DHT22;2062;50.694;7.246;2023-08-01T14:49:29;22.70;48.40
4097;DHT22;2062;50.694;7.246;2023-08-01T14:51:55;22.60;47.90
4097;DHT22;2062;50.694;7.246;2023-08-01T14:54:22;22.60;48.50
4097;DHT22;2062;50.694;7.246;2023-08-01T14:56:51;22.50;48.60
4097;DHT22;2062;50.694;7.246;2023-08-01T14:59:18;22.40;49.10
4097;DHT22;2062;50.694;7.246;2023-08-01T15:01:45;22.30;49.40
4097;DHT22;2062;50.694;7.246;2023-08-01T15:04:12;22.30;49.60
4097;DHT22;2062;50.694;7.246;2023-08-01T15:06:39;22.30;50.10
4097;DHT22;2062;50.694;7.246;2023-08-01T15:09:06;22.20;49.90
4097;DHT22;2062;50.694;7.246;2023-08-01T15:11:33;22.30;50.50
4097;DHT22;2062;50.694;7.246;2023-08-01T15:14:01;22.20;50.40
4097;DHT22;2062;50.694;7.246;2023-08-01T15:16:28;22.20;50.90
4097;DHT22;2062;50.694;7.246;2023-08-01T15:18:54;22.20;51.00
4097;DHT22;2062;50.694;7.246;2023-08-01T15:21:21;22.30;50.90
4097;DHT22;2062;50.694;7.246;2023-08-01T15:23:51;22.30;51.10
4097;DHT22;2062;50.694;7.246;2023-08-01T15:26:17;22.30;51.30
4097;DHT22;2062;50.694;7.246;2023-08-01T15:28:44;22.30;51.50
4097;DHT22;2062;50.694;7.246;2023-08-01T15:31:12;22.40;51.50
4097;DHT22;2062;50.694;7.246;2023-08-01T15:33:41;22.40;51.10
4097;DHT22;2062;50.694;7.246;2023-08-01T15:36:08;22.40;51.10
4097;DHT22;2062;50.694;7.246;2023-08-01T15:38:37;22.50;51.10
4097;DHT22;2062;50.694;7.246;2023-08-01T15:41:04;22.50;50.90
4097;DHT22;2062;50.694;7.246;2023-08-01T15:43:34;22.50;50.70
4097;DHT22;2062;50.694;7.246;2023-08-01T15:46:02;22.40;50.30
4097;DHT22;2062;50.694;7.246;2023-08-01T15:48:30;22.40;50.30
4097;DHT22;2062;50.694;7.246;2023-08-01T15:50:57;22.30;50.20
4097;DHT22;2062;50.694;7.246;2023-08-01T15:53:24;22.30;50.20
4097;DHT22;2062;50.694;7.246;2023-08-01T15:55:55;22.20;50.20
4097;DHT22;2062;50.694;7.246;2023-08-01T15:58:22;22.00;50.60
4097;DHT22;2062;50.694;7.246;2023-08-01T16:00:49;21.90;50.90
4097;DHT22;2062;50.694;7.246;2023-08-01T16:03:16;21.70;50.80